Time;durP1;ratioP1;P1;durP2;ratioP2;P2;SDS_P1;SDS_P2;PMS_P1;PMS_P2;Temp;Humidity;BMP_temperature;BMP_pressure;BME280_temperature;BME280_humidity;BME280_pressure;Samples;Min_cycle;Max_cycle;Signal;HPM_P1;HPM_P2
2022/07/29 00:00:05;;;;;;;7.27;2.07;;;;;;;;;;5054248;28;20890;-75
2022/07/29 00:02:31;;;;;;;1.63;1.13;;;;;;;;;;5053879;28;20501;-76
2022/07/29 00:04:57;;;;;;;6.70;2.10;;;;;;;;;;5145367;22;20605;-75
2022/07/29 00:07:24;;;;;;;2.43;1.40;;;;;;;;;;5054301;28;20481;-76
2022/07/29 00:09:50;;;;;;;4.40;1.80;;;;;;;;;;5054121;28;20408;-76
2022/07/29 00:12:16;;;;;;;3.33;1.30;;;;;;;;;;5053817;28;20449;-78
2022/07/29 00:14:42;;;;;;;2.30;1.57;;;;;;;;;;5053704;28;20952;-76
2022/07/29 00:17:08;;;;;;;3.23;1.47;;;;;;;;;;5054224;28;20818;-76
2022/07/29 00:19:34;;;;;;;3.97;1.37;;;;;;;;;;5054101;28;20449;-76
2022/07/29 00:22:00;;;;;;;2.20;1.53;;;;;;;;;;5054311;28;20499;-75
2022/07/29 00:24:26;;;;;;;4.47;1.60;;;;;;;;;;5053353;28;20438;-77
2022/07/29 00:26:52;;;;;;;3.60;1.70;;;;;;;;;;5054046;28;20422;-75
2022/07/29 00:29:18;;;;;;;2.00;1.43;;;;;;;;;;5053868;28;20505;-74
2022/07/29 00:31:44;;;;;;;4.20;1.70;;;;;;;;;;5053785;28;20945;-75
2022/07/29 00:36:57;;;;;;;3.00;1.10;;;;;;;;;;5032492;28;21003;-75
2022/07/29 00:39:23;;;;;;;4.00;2.00;;;;;;;;;;5053658;28;20377;-76
2022/07/29 00:41:50;;;;;;;8.13;1.63;;;;;;;;;;5053722;28;20865;-76
2022/07/29 00:44:16;;;;;;;4.97;2.00;;;;;;;;;;5053112;28;20440;-76
2022/07/29 00:46:42;;;;;;;5.50;1.50;;;;;;;;;;5053535;28;20410;-75
2022/07/29 00:49:08;;;;;;;4.03;1.70;;;;;;;;;;5053457;28;20468;-76
2022/07/29 00:51:35;;;;;;;4.40;1.60;;;;;;;;;;5053442;28;20419;-76
2022/07/29 00:54:02;;;;;;;2.50;1.80;;;;;;;;;;5052919;28;20411;-76
2022/07/29 00:56:30;;;;;;;3.40;1.87;;;;;;;;;;5053385;28;20487;-76
2022/07/29 00:58:57;;;;;;;2.07;1.60;;;;;;;;;;5053327;28;20414;-75
2022/07/29 01:01:22;;;;;;;7.00;2.60;;;;;;;;;;5053298;28;20400;-75
2022/07/29 01:03:48;;;;;;;4.70;1.60;;;;;;;;;;5052751;28;20455;-75
2022/07/29 01:06:15;;;;;;;3.00;1.67;;;;;;;;;;5053378;28;20515;-76
2022/07/29 01:08:41;;;;;;;3.50;1.77;;;;;;;;;;5053101;28;20869;-75
2022/07/29 01:11:07;;;;;;;4.93;1.50;;;;;;;;;;5053167;28;20467;-75
2022/07/29 01:13:33;;;;;;;2.43;1.40;;;;;;;;;;5051723;28;20979;-75
2022/07/29 01:16:03;;;;;;;2.00;1.37;;;;;;;;;;5051761;28;20955;-75
2022/07/29 01:18:29;;;;;;;5.60;1.73;;;;;;;;;;5053034;28;20413;-75
2022/07/29 01:20:57;;;;;;;8.53;1.70;;;;;;;;;;5052753;28;20452;-76
2022/07/29 01:23:26;;;;;;;5.10;1.90;;;;;;;;;;5052510;28;20444;-75
2022/07/29 01:26:01;;;;;;;3.57;1.57;;;;;;;;;;5053273;28;20407;-76
2022/07/29 01:28:57;;;;;;;2.37;1.60;;;;;;;;;;5056857;28;20417;-75
2022/07/29 01:31:28;;;;;;;3.90;1.50;;;;;;;;;;5040325;28;20782;-75
2022/07/29 01:33:58;;;;;;;3.70;1.70;;;;;;;;;;5056913;28;20432;-75
2022/07/29 01:36:27;;;;;;;5.10;1.80;;;;;;;;;;5056991;28;20429;-76
2022/07/29 01:39:05;;;;;;;3.10;1.77;;;;;;;;;;5057108;28;20412;-74
2022/07/29 01:41:34;;;;;;;2.60;1.50;;;;;;;;;;5057003;28;20418;-76
2022/07/29 01:44:02;;;;;;;2.80;1.60;;;;;;;;;;5056614;28;20418;-75
2022/07/29 01:46:32;;;;;;;4.10;1.60;;;;;;;;;;5057229;28;20758;-74
2022/07/29 01:49:02;;;;;;;3.40;1.70;;;;;;;;;;5057150;28;20394;-75
2022/07/29 01:51:32;;;;;;;9.93;1.80;;;;;;;;;;5057053;28;20402;-74
2022/07/29 01:54:02;;;;;;;6.30;1.57;;;;;;;;;;5056569;28;20505;-75
2022/07/29 01:56:32;;;;;;;7.07;1.67;;;;;;;;;;5056818;28;20494;-75
2022/07/29 01:58:59;;;;;;;3.30;1.60;;;;;;;;;;5056746;28;20411;-75
2022/07/29 02:01:25;;;;;;;3.50;1.70;;;;;;;;;;5056586;28;20429;-75
2022/07/29 02:03:51;;;;;;;3.63;1.80;;;;;;;;;;5056097;28;20471;-75
2022/07/29 02:06:19;;;;;;;3.83;1.63;;;;;;;;;;5056656;28;20413;-75
2022/07/29 02:08:46;;;;;;;7.60;1.80;;;;;;;;;;5056678;28;20367;-75
2022/07/29 02:11:12;;;;;;;4.77;1.77;;;;;;;;;;5057335;28;20367;-75
2022/07/29 02:13:38;;;;;;;3.87;1.60;;;;;;;;;;5058047;28;20810;-75
2022/07/29 02:16:06;;;;;;;2.50;1.40;;;;;;;;;;5057676;28;20452;-75
2022/07/29 02:18:32;;;;;;;2.50;1.77;;;;;;;;;;5057393;28;21007;-75
2022/07/29 02:21:00;;;;;;;6.77;2.20;;;;;;;;;;5055968;28;20394;-76
2022/07/29 02:23:26;;;;;;;5.03;2.07;;;;;;;;;;5055659;28;20459;-76
2022/07/29 02:25:54;;;;;;;5.63;2.00;;;;;;;;;;5056173;28;20404;-76
2022/07/29 02:28:21;;;;;;;4.63;1.83;;;;;;;;;;5057228;28;20410;-75
2022/07/29 02:30:47;;;;;;;4.47;2.10;;;;;;;;;;5056044;28;20410;-76
2022/07/29 02:33:16;;;;;;;2.20;1.50;;;;;;;;;;5055518;28;20408;-75
2022/07/29 02:35:43;;;;;;;2.70;1.60;;;;;;;;;;5055966;28;20461;-76
2022/07/29 02:40:58;;;;;;;4.57;1.90;;;;;;;;;;5056048;28;20408;-76
2022/07/29 02:43:25;;;;;;;8.73;2.20;;;;;;;;;;5054085;28;20521;-76
2022/07/29 02:45:53;;;;;;;2.93;1.90;;;;;;;;;;5055925;28;20492;-77
2022/07/29 02:48:23;;;;;;;3.60;1.60;;;;;;;;;;5054363;28;20413;-76
2022/07/29 02:50:50;;;;;;;6.40;2.00;;;;;;;;;;5055721;28;20402;-76
2022/07/29 02:53:19;;;;;;;3.53;1.77;;;;;;;;;;5055112;28;20411;-77
2022/07/29 02:55:59;;;;;;;3.87;2.00;;;;;;;;;;5055486;28;20441;-76
2022/07/29 02:58:28;;;;;;;2.50;1.93;;;;;;;;;;5055522;28;20415;-75
2022/07/29 03:00:55;;;;;;;8.93;2.00;;;;;;;;;;5055498;28;20439;-75
2022/07/29 03:03:22;;;;;;;8.70;2.37;;;;;;;;;;5054900;28;20436;-75
2022/07/29 03:05:48;;;;;;;4.97;2.70;;;;;;;;;;5055358;28;20440;-75
2022/07/29 03:08:15;;;;;;;10.60;2.77;;;;;;;;;;5055203;28;20421;-75
2022/07/29 03:10:44;;;;;;;3.80;2.00;;;;;;;;;;5057259;28;20408;-76
2022/07/29 03:13:10;;;;;;;7.10;2.07;;;;;;;;;;5054777;28;20444;-77
2022/07/29 03:15:37;;;;;;;6.13;2.37;;;;;;;;;;5054951;28;20464;-75
2022/07/29 03:18:03;;;;;;;5.90;2.17;;;;;;;;;;5055152;28;20414;-75
2022/07/29 03:20:29;;;;;;;4.47;1.80;;;;;;;;;;5055264;28;20412;-76
2022/07/29 03:22:55;;;;;;;7.73;2.50;;;;;;;;;;5054581;28;20570;-76
2022/07/29 03:25:21;;;;;;;3.70;2.00;;;;;;;;;;5054966;28;20875;-76
2022/07/29 03:27:48;;;;;;;4.30;2.03;;;;;;;;;;5054891;28;20791;-76
2022/07/29 03:30:15;;;;;;;11.40;2.00;;;;;;;;;;5055056;28;20920;-75
2022/07/29 03:32:41;;;;;;;9.63;2.20;;;;;;;;;;5054486;28;20419;-75
2022/07/29 03:35:08;;;;;;;5.63;2.47;;;;;;;;;;5054909;28;20860;-76
2022/07/29 03:37:36;;;;;;;4.30;2.10;;;;;;;;;;5054742;28;20405;-75
2022/07/29 03:40:04;;;;;;;5.90;1.97;;;;;;;;;;5053760;28;20474;-75
2022/07/29 03:42:34;;;;;;;3.23;2.10;;;;;;;;;;5054447;28;20412;-76
2022/07/29 03:45:02;;;;;;;3.50;1.70;;;;;;;;;;5054612;28;20426;-76
2022/07/29 03:47:29;;;;;;;4.83;2.37;;;;;;;;;;5054511;28;20409;-76
2022/07/29 03:50:07;;;;;;;6.37;2.60;;;;;;;;;;5053999;28;20478;-75
2022/07/29 03:52:33;;;;;;;9.93;2.20;;;;;;;;;;5054517;28;20476;-76
2022/07/29 03:55:00;;;;;;;4.57;1.97;;;;;;;;;;5054601;28;20456;-76
2022/07/29 03:57:27;;;;;;;4.67;1.70;;;;;;;;;;5054387;28;20445;-76
2022/07/29 03:59:54;;;;;;;4.27;1.87;;;;;;;;;;5054284;28;20384;-76
2022/07/29 04:02:20;;;;;;;5.23;1.90;;;;;;;;;;5054228;28;20405;-76
2022/07/29 04:04:46;;;;;;;5.67;2.17;;;;;;;;;;5054262;28;20448;-75
2022/07/29 04:07:13;;;;;;;6.07;2.20;;;;;;;;;;5054166;28;20914;-76
2022/07/29 04:09:39;;;;;;;4.70;2.00;;;;;;;;;;5054100;28;20387;-77
2022/07/29 04:12:05;;;;;;;5.10;2.10;;;;;;;;;;5052699;28;20395;-76
2022/07/29 04:14:32;;;;;;;5.73;2.30;;;;;;;;;;5053651;28;20465;-76
2022/07/29 04:16:58;;;;;;;8.30;2.97;;;;;;;;;;5053985;28;20458;-77
2022/07/29 04:19:24;;;;;;;4.90;2.00;;;;;;;;;;5053951;28;20412;-75
2022/07/29 04:21:51;;;;;;;8.33;2.57;;;;;;;;;;5053798;28;20415;-76
2022/07/29 04:24:17;;;;;;;4.80;1.90;;;;;;;;;;5052302;28;20424;-75
2022/07/29 04:26:43;;;;;;;4.97;2.40;;;;;;;;;;5053915;28;20466;-76
2022/07/29 04:29:09;;;;;;;2.70;2.50;;;;;;;;;;5053776;28;20405;-76
2022/07/29 04:31:35;;;;;;;3.80;1.90;;;;;;;;;;5053670;28;20402;-76
2022/07/29 04:34:01;;;;;;;4.77;2.50;;;;;;;;;;5053159;28;20425;-75
2022/07/29 04:36:27;;;;;;;5.47;2.37;;;;;;;;;;5053612;28;20460;-76
2022/07/29 04:38:53;;;;;;;6.90;2.93;;;;;;;;;;5053549;28;20416;-76
2022/07/29 04:41:19;;;;;;;8.57;2.17;;;;;;;;;;5053703;28;20413;-76
2022/07/29 04:43:45;;;;;;;6.13;2.43;;;;;;;;;;5053257;28;20441;-77
2022/07/29 04:46:12;;;;;;;4.90;2.37;;;;;;;;;;5052618;28;20405;-77
2022/07/29 04:48:37;;;;;;;5.43;2.10;;;;;;;;;;5053626;28;20746;-76
2022/07/29 04:51:03;;;;;;;3.30;2.10;;;;;;;;;;5053617;28;20413;-76
2022/07/29 04:53:30;;;;;;;3.77;2.30;;;;;;;;;;5053057;28;20439;-76
2022/07/29 04:55:56;;;;;;;4.87;2.70;;;;;;;;;;5053304;28;20518;-75
2022/07/29 04:58:23;;;;;;;4.30;2.90;;;;;;;;;;5051995;28;20409;-76
2022/07/29 05:00:49;;;;;;;4.27;2.53;;;;;;;;;;5052792;28;20409;-75
2022/07/29 05:03:15;;;;;;;8.17;3.83;;;;;;;;;;5052538;28;20791;-75
2022/07/29 05:05:42;;;;;;;8.90;2.60;;;;;;;;;;5053004;28;20447;-76
2022/07/29 05:08:08;;;;;;;3.73;2.03;;;;;;;;;;5053089;28;20439;-76
2022/07/29 05:10:37;;;;;;;5.60;2.10;;;;;;;;;;5053116;28;20456;-76
2022/07/29 05:13:04;;;;;;;4.33;2.20;;;;;;;;;;5052643;28;20436;-77
2022/07/29 05:15:30;;;;;;;6.07;1.97;;;;;;;;;;5053073;28;20483;-76
2022/07/29 05:17:56;;;;;;;5.70;2.10;;;;;;;;;;5053100;28;20388;-76
2022/07/29 05:20:26;;;;;;;4.07;2.57;;;;;;;;;;5052920;28;20419;-76
2022/07/29 05:22:52;;;;;;;5.90;2.13;;;;;;;;;;5052559;28;20413;-76
2022/07/29 05:25:18;;;;;;;4.80;2.20;;;;;;;;;;5053041;28;20426;-76
2022/07/29 05:27:44;;;;;;;3.47;2.37;;;;;;;;;;5052998;28;20417;-76
2022/07/29 05:30:10;;;;;;;5.70;2.50;;;;;;;;;;5052954;28;20413;-76
2022/07/29 05:32:36;;;;;;;3.00;2.20;;;;;;;;;;5051504;28;20727;-76
2022/07/29 05:35:02;;;;;;;9.33;3.13;;;;;;;;;;5053135;28;20551;-76
2022/07/29 05:37:28;;;;;;;5.00;2.57;;;;;;;;;;5053107;28;20757;-76
2022/07/29 05:39:54;;;;;;;4.33;2.23;;;;;;;;;;5053138;28;20449;-77
2022/07/29 05:42:20;;;;;;;14.43;3.17;;;;;;;;;;5052781;28;20908;-76
2022/07/29 05:44:47;;;;;;;7.63;3.30;;;;;;;;;;5052790;28;20444;-76
2022/07/29 05:47:13;;;;;;;5.30;2.10;;;;;;;;;;5052873;28;20501;-75
2022/07/29 05:49:39;;;;;;;4.90;2.70;;;;;;;;;;5052770;28;20775;-75
2022/07/29 05:52:05;;;;;;;7.60;2.33;;;;;;;;;;5052750;28;20412;-76
2022/07/29 05:54:31;;;;;;;3.87;2.20;;;;;;;;;;5050976;28;20439;-75
2022/07/29 05:56:57;;;;;;;5.27;3.00;;;;;;;;;;5052821;28;20761;-75
2022/07/29 05:59:23;;;;;;;8.13;2.77;;;;;;;;;;5052712;28;20416;-76
2022/07/29 06:01:49;;;;;;;6.50;2.60;;;;;;;;;;5038271;28;20396;-75
2022/07/29 06:04:15;;;;;;;5.67;3.30;;;;;;;;;;5032300;28;20449;-75
2022/07/29 06:06:41;;;;;;;9.67;3.10;;;;;;;;;;5031337;28;20857;-76
2022/07/29 06:09:07;;;;;;;9.60;3.20;;;;;;;;;;5033578;28;20388;-75
2022/07/29 06:11:33;;;;;;;4.20;2.50;;;;;;;;;;5033546;28;20410;-75
2022/07/29 06:13:59;;;;;;;9.77;3.03;;;;;;;;;;5035081;28;20458;-75
2022/07/29 06:16:25;;;;;;;4.40;2.60;;;;;;;;;;5036261;28;20444;-76
2022/07/29 06:18:52;;;;;;;4.80;2.57;;;;;;;;;;5036166;28;20388;-75
2022/07/29 06:21:18;;;;;;;8.20;3.57;;;;;;;;;;5036338;28;20392;-75
2022/07/29 06:23:45;;;;;;;6.50;3.30;;;;;;;;;;5035985;28;20407;-77
2022/07/29 06:26:11;;;;;;;4.53;2.63;;;;;;;;;;5035141;28;20432;-76
2022/07/29 06:28:37;;;;;;;5.23;2.40;;;;;;;;;;5036093;28;20421;-75
2022/07/29 06:31:03;;;;;;;3.57;2.27;;;;;;;;;;5036077;28;20414;-77
2022/07/29 06:33:29;;;;;;;7.97;3.50;;;;;;;;;;5037937;28;20400;-81
2022/07/29 06:35:55;;;;;;;6.33;4.10;;;;;;;;;;5036578;28;20542;-81
2022/07/29 06:38:22;;;;;;;7.53;3.70;;;;;;;;;;5036041;28;20406;-77
2022/07/29 06:41:00;;;;;;;4.43;3.53;;;;;;;;;;5034658;28;20485;-76
2022/07/29 06:43:31;;;;;;;10.07;4.80;;;;;;;;;;5034260;28;20412;-77
2022/07/29 06:45:59;;;;;;;6.03;3.97;;;;;;;;;;5035905;28;20496;-77
2022/07/29 06:48:25;;;;;;;9.90;5.33;;;;;;;;;;5035854;28;20410;-80
2022/07/29 06:50:51;;;;;;;10.67;4.53;;;;;;;;;;5035888;28;20405;-78
2022/07/29 06:53:17;;;;;;;6.00;4.60;;;;;;;;;;5035294;28;20466;-78
2022/07/29 06:55:43;;;;;;;6.17;4.50;;;;;;;;;;5035550;28;20515;-77
2022/07/29 06:58:09;;;;;;;6.90;4.57;;;;;;;;;;5035792;28;20417;-79
2022/07/29 07:00:36;;;;;;;10.17;4.70;;;;;;;;;;5035704;28;20464;-78
2022/07/29 07:03:02;;;;;;;8.97;6.17;;;;;;;;;;5034914;28;20492;-77
2022/07/29 07:05:28;;;;;;;12.73;4.80;;;;;;;;;;5035351;28;20827;-79
2022/07/29 07:07:54;;;;;;;9.13;5.53;;;;;;;;;;5035469;28;20862;-78
2022/07/29 07:10:20;;;;;;;6.73;6.00;;;;;;;;;;5035023;28;20388;-79
2022/07/29 07:12:46;;;;;;;8.80;5.27;;;;;;;;;;5034714;28;20452;-81
2022/07/29 07:15:12;;;;;;;6.00;4.67;;;;;;;;;;5035073;28;20907;-78
2022/07/29 07:17:38;;;;;;;9.70;4.70;;;;;;;;;;5033964;28;20396;-78
2022/07/29 07:20:05;;;;;;;10.17;5.43;;;;;;;;;;5035200;28;20392;-77
2022/07/29 07:22:31;;;;;;;6.57;4.97;;;;;;;;;;5034943;28;20428;-78
2022/07/29 07:24:57;;;;;;;9.47;4.60;;;;;;;;;;5034109;28;20479;-77
2022/07/29 07:27:23;;;;;;;7.33;4.60;;;;;;;;;;5035057;28;20396;-78
2022/07/29 07:29:49;;;;;;;5.43;4.17;;;;;;;;;;5035038;28;20421;-79
2022/07/29 07:32:16;;;;;;;9.20;4.20;;;;;;;;;;5034963;28;20396;-78
2022/07/29 07:34:42;;;;;;;6.63;4.10;;;;;;;;;;5034874;28;20534;-80
2022/07/29 07:37:09;;;;;;;8.80;4.93;;;;;;;;;;5035096;28;20406;-75
2022/07/29 07:39:35;;;;;;;8.03;4.50;;;;;;;;;;5035092;28;20407;-76
2022/07/29 07:42:01;;;;;;;7.53;5.10;;;;;;;;;;5035169;28;20734;-77
2022/07/29 07:44:27;;;;;;;6.90;4.77;;;;;;;;;;5033221;28;20480;-79
2022/07/29 07:46:53;;;;;;;11.07;5.50;;;;;;;;;;5034580;28;20385;-79
2022/07/29 07:49:19;;;;;;;8.50;5.53;;;;;;;;;;5038709;28;20815;-78
2022/07/29 07:51:45;;;;;;;5.10;4.57;;;;;;;;;;5042087;28;20454;-77
2022/07/29 07:54:11;;;;;;;8.20;6.00;;;;;;;;;;5036924;28;20443;-78
2022/07/29 07:56:37;;;;;;;6.13;5.30;;;;;;;;;;5034486;28;20436;-81
2022/07/29 07:59:03;;;;;;;7.40;5.07;;;;;;;;;;5034197;28;20460;-76
2022/07/29 08:01:29;;;;;;;9.33;5.63;;;;;;;;;;5033357;28;20781;-77
2022/07/29 08:03:55;;;;;;;9.87;5.60;;;;;;;;;;5033835;28;20457;-80
2022/07/29 08:06:23;;;;;;;12.83;5.57;;;;;;;;;;5034718;28;20388;-79
2022/07/29 08:08:49;;;;;;;8.63;6.83;;;;;;;;;;5034255;28;20413;-77
2022/07/29 08:11:15;;;;;;;7.33;6.43;;;;;;;;;;5034174;28;20520;-78
2022/07/29 08:13:42;;;;;;;10.63;6.10;;;;;;;;;;5033534;28;20439;-78
2022/07/29 08:16:11;;;;;;;10.03;6.60;;;;;;;;;;5032772;28;20867;-79
2022/07/29 08:18:38;;;;;;;10.80;6.60;;;;;;;;;;5034114;28;20498;-78
2022/07/29 08:21:04;;;;;;;9.13;6.50;;;;;;;;;;5034038;28;20799;-77
2022/07/29 08:23:45;;;;;;;9.80;6.73;;;;;;;;;;5033565;28;20554;-78
2022/07/29 08:26:11;;;;;;;7.87;6.50;;;;;;;;;;5032905;28;20881;-81
2022/07/29 08:28:38;;;;;;;10.80;6.43;;;;;;;;;;5032975;28;20432;-79
2022/07/29 08:31:04;;;;;;;13.37;7.50;;;;;;;;;;5034286;28;20392;-78
2022/07/29 08:33:30;;;;;;;9.80;7.00;;;;;;;;;;5033245;28;20418;-78
2022/07/29 08:35:56;;;;;;;13.80;8.57;;;;;;;;;;5033465;28;20519;-79
2022/07/29 08:38:22;;;;;;;8.53;7.27;;;;;;;;;;5033846;28;20435;-76
2022/07/29 08:40:48;;;;;;;11.07;7.80;;;;;;;;;;5033810;28;20384;-79
2022/07/29 08:43:22;;;;;;;23.80;8.47;;;;;;;;;;5033143;28;20438;-75
2022/07/29 08:45:48;;;;;;;16.73;7.83;;;;;;;;;;5016530;28;20425;-77
2022/07/29 08:48:22;;;;;;;11.90;7.90;;;;;;;;;;5032361;28;20906;-76
2022/07/29 08:50:49;;;;;;;12.67;7.00;;;;;;;;;;5033313;28;20414;-75
2022/07/29 08:53:16;;;;;;;12.10;7.03;;;;;;;;;;5032909;28;20454;-73
2022/07/29 08:55:46;;;;;;;12.03;7.17;;;;;;;;;;5033442;28;20814;-74
2022/07/29 08:58:13;;;;;;;10.43;6.93;;;;;;;;;;5033548;28;20426;-75
2022/07/29 09:00:42;;;;;;;7.30;6.50;;;;;;;;;;5034072;28;20440;-76
2022/07/29 09:03:09;;;;;;;20.90;7.57;;;;;;;;;;5034223;28;20446;-74
2022/07/29 09:05:36;;;;;;;8.87;5.57;;;;;;;;;;5034150;28;20806;-75
2022/07/29 09:08:02;;;;;;;11.77;6.00;;;;;;;;;;5033325;28;20500;-75
2022/07/29 09:10:28;;;;;;;8.23;5.27;;;;;;;;;;5033240;28;20416;-75
2022/07/29 09:12:58;;;;;;;7.77;5.20;;;;;;;;;;5032713;28;20414;-77
2022/07/29 09:15:24;;;;;;;8.80;4.73;;;;;;;;;;5033063;28;20453;-72
2022/07/29 09:17:51;;;;;;;6.60;5.20;;;;;;;;;;5033038;28;20420;-75
2022/07/29 09:20:18;;;;;;;7.67;4.20;;;;;;;;;;5032930;28;20410;-75
2022/07/29 09:22:48;;;;;;;6.83;4.23;;;;;;;;;;5032697;28;20495;-74
2022/07/29 09:25:15;;;;;;;10.43;4.63;;;;;;;;;;5033243;28;20448;-76
2022/07/29 09:27:41;;;;;;;9.73;4.60;;;;;;;;;;5033170;28;20901;-75
2022/07/29 09:30:10;;;;;;;10.07;4.40;;;;;;;;;;5033033;28;20468;-74
2022/07/29 09:32:56;;;;;;;12.97;4.87;;;;;;;;;;5032585;28;20421;-74
2022/07/29 09:35:24;;;;;;;8.07;3.97;;;;;;;;;;5032964;28;20471;-76
2022/07/29 09:37:50;;;;;;;8.10;4.73;;;;;;;;;;5032929;28;20420;-74
2022/07/29 09:40:20;;;;;;;8.00;4.73;;;;;;;;;;5032852;28;20455;-73
2022/07/29 09:42:46;;;;;;;7.97;5.07;;;;;;;;;;5031111;28;20500;-75
2022/07/29 09:45:12;;;;;;;7.87;5.00;;;;;;;;;;5031655;28;20876;-75
2022/07/29 09:47:46;;;;;;;18.27;5.47;;;;;;;;;;5033732;28;20409;-73
2022/07/29 09:50:13;;;;;;;8.10;4.70;;;;;;;;;;5036511;28;20413;-75
2022/07/29 09:52:45;;;;;;;7.93;4.03;;;;;;;;;;5036286;28;20416;-74
2022/07/29 09:55:12;;;;;;;9.67;4.30;;;;;;;;;;5036681;28;20457;-74
2022/07/29 09:57:38;;;;;;;7.27;4.20;;;;;;;;;;5035334;28;20471;-75
2022/07/29 10:00:06;;;;;;;4.80;3.80;;;;;;;;;;5040674;28;20471;-74
2022/07/29 10:02:34;;;;;;;9.57;3.77;;;;;;;;;;5043583;28;20504;-75
2022/07/29 10:05:01;;;;;;;5.27;3.87;;;;;;;;;;5036333;28;20440;-76
2022/07/29 10:07:27;;;;;;;7.10;4.33;;;;;;;;;;5036508;28;20524;-75
2022/07/29 10:09:54;;;;;;;6.80;4.50;;;;;;;;;;5036472;28;20781;-74
2022/07/29 10:12:20;;;;;;;7.20;4.47;;;;;;;;;;5035934;28;20444;-74
2022/07/29 10:14:47;;;;;;;6.23;3.40;;;;;;;;;;5036114;28;20987;-76
2022/07/29 10:17:13;;;;;;;5.60;3.63;;;;;;;;;;5037307;28;20898;-75
2022/07/29 10:19:39;;;;;;;6.97;3.60;;;;;;;;;;5055705;28;20413;-73
2022/07/29 10:22:07;;;;;;;5.43;3.70;;;;;;;;;;5047894;28;20508;-75
2022/07/29 10:24:33;;;;;;;9.33;3.63;;;;;;;;;;5055828;28;20424;-73
2022/07/29 10:27:01;;;;;;;7.83;3.30;;;;;;;;;;5051798;28;20519;-75
2022/07/29 10:29:28;;;;;;;6.47;3.30;;;;;;;;;;5045593;28;21022;-75
2022/07/29 10:32:13;;;;;;;7.40;3.20;;;;;;;;;;5044297;28;20420;-75
2022/07/29 10:34:57;;;;;;;6.90;3.90;;;;;;;;;;5043165;28;20991;-74
2022/07/29 10:37:31;;;;;;;6.80;4.03;;;;;;;;;;5035820;28;20398;-76
2022/07/29 10:43:07;;;;;;;4.57;2.87;;;;;;;;;;5046441;28;20428;-76
2022/07/29 10:45:33;;;;;;;6.77;2.70;;;;;;;;;;5042164;28;20406;-75
2022/07/29 10:48:06;;;;;;;5.40;2.70;;;;;;;;;;5036173;28;20910;-74
2022/07/29 10:50:51;;;;;;;8.50;3.10;;;;;;;;;;5035327;28;20437;-76
2022/07/29 10:53:17;;;;;;;7.10;3.57;;;;;;;;;;5035187;28;20567;-76
2022/07/29 10:55:46;;;;;;;10.50;3.53;;;;;;;;;;5034390;28;20457;-76
2022/07/29 10:58:17;;;;;;;6.10;3.27;;;;;;;;;;5035802;28;20414;-76
2022/07/29 11:00:43;;;;;;;8.47;4.10;;;;;;;;;;5034359;28;20402;-76
2022/07/29 11:03:09;;;;;;;7.40;3.90;;;;;;;;;;5035192;28;20426;-77
2022/07/29 11:05:55;;;;;;;3.70;2.60;;;;;;;;;;5035607;28;20421;-76
2022/07/29 11:08:23;;;;;;;10.77;3.50;;;;;;;;;;5035491;28;21004;-75
2022/07/29 11:10:50;;;;;;;5.03;2.57;;;;;;;;;;5034000;28;20421;-76
2022/07/29 11:13:34;;;;;;;7.67;3.60;;;;;;;;;;5033542;28;20449;-75
2022/07/29 11:16:00;;;;;;;5.70;2.63;;;;;;;;;;5035073;28;20453;-76
2022/07/29 11:18:26;;;;;;;7.80;2.90;;;;;;;;;;5035175;28;20567;-75
2022/07/29 11:20:55;;;;;;;8.30;2.93;;;;;;;;;;5034870;28;20440;-77
2022/07/29 11:23:28;;;;;;;4.07;1.90;;;;;;;;;;5034969;28;20461;-77
2022/07/29 11:26:16;;;;;;;3.57;2.10;;;;;;;;;;5035289;28;20441;-77
2022/07/29 11:28:58;;;;;;;4.07;1.80;;;;;;;;;;5035090;28;20416;-77
2022/07/29 11:31:37;;;;;;;4.93;2.30;;;;;;;;;;5035179;28;20471;-76
2022/07/29 11:34:19;;;;;;;4.60;2.60;;;;;;;;;;5034593;28;20824;-76
2022/07/29 11:37:04;;;;;;;4.73;2.30;;;;;;;;;;5035201;28;20423;-75
2022/07/29 11:39:30;;;;;;;4.20;1.93;;;;;;;;;;5035040;28;20412;-75
2022/07/29 11:42:15;;;;;;;7.20;2.30;;;;;;;;;;5034810;28;20414;-77
2022/07/29 11:44:56;;;;;;;3.37;2.13;;;;;;;;;;5034747;28;20432;-79
2022/07/29 11:47:23;;;;;;;20.23;3.30;;;;;;;;;;5034603;28;20409;-77
2022/07/29 11:49:49;;;;;;;5.03;2.00;;;;;;;;;;5034969;28;20411;-78
2022/07/29 11:52:15;;;;;;;2.63;1.73;;;;;;;;;;5034698;28;20769;-77
2022/07/29 11:54:43;;;;;;;6.30;2.40;;;;;;;;;;5033409;28;20467;-77
2022/07/29 11:57:09;;;;;;;3.83;2.10;;;;;;;;;;5034315;28;20802;-74
2022/07/29 11:59:42;;;;;;;2.93;1.63;;;;;;;;;;5034540;28;20886;-75
2022/07/29 12:02:08;;;;;;;4.07;2.03;;;;;;;;;;5034511;28;20442;-76
2022/07/29 12:04:34;;;;;;;3.00;2.13;;;;;;;;;;5034012;28;20523;-75
2022/07/29 12:07:00;;;;;;;3.10;1.77;;;;;;;;;;5034284;28;20418;-78
2022/07/29 12:09:26;;;;;;;5.60;1.87;;;;;;;;;;5034074;28;20425;-78
2022/07/29 12:11:59;;;;;;;3.10;1.93;;;;;;;;;;5033967;28;20493;-78
2022/07/29 12:14:25;;;;;;;2.93;1.80;;;;;;;;;;5033690;28;20436;-78
2022/07/29 12:16:51;;;;;;;6.80;1.77;;;;;;;;;;5034237;28;20448;-77
2022/07/29 12:19:17;;;;;;;3.97;2.30;;;;;;;;;;5032629;28;20433;-77
2022/07/29 12:21:54;;;;;;;4.20;2.23;;;;;;;;;;5034083;28;20917;-76
2022/07/29 12:24:21;;;;;;;3.20;1.70;;;;;;;;;;5033664;28;20487;-78
2022/07/29 12:26:54;;;;;;;3.93;2.10;;;;;;;;;;5033883;28;20532;-75
2022/07/29 12:29:20;;;;;;;4.50;1.93;;;;;;;;;;5033876;28;20414;-75
2022/07/29 12:31:46;;;;;;;7.50;2.47;;;;;;;;;;5033886;28;20420;-75
2022/07/29 12:34:13;;;;;;;3.93;1.80;;;;;;;;;;5033618;28;20442;-75
2022/07/29 12:36:40;;;;;;;3.30;1.70;;;;;;;;;;5033997;28;20449;-75
2022/07/29 12:39:07;;;;;;;6.00;2.10;;;;;;;;;;5033640;28;20790;-75
2022/07/29 12:41:33;;;;;;;2.37;1.87;;;;;;;;;;5033932;28;20801;-74
2022/07/29 12:43:58;;;;;;;3.73;2.10;;;;;;;;;;5033216;28;20428;-75
2022/07/29 12:46:24;;;;;;;6.90;2.30;;;;;;;;;;5033517;28;20417;-75
2022/07/29 12:48:54;;;;;;;6.17;1.90;;;;;;;;;;5033475;28;20426;-75
2022/07/29 12:51:28;;;;;;;5.33;2.20;;;;;;;;;;5033452;28;20793;-75
2022/07/29 12:54:11;;;;;;;4.03;2.40;;;;;;;;;;5033156;28;20967;-75
2022/07/29 12:56:40;;;;;;;3.43;2.00;;;;;;;;;;5032084;28;20455;-75
2022/07/29 12:59:17;;;;;;;6.73;2.03;;;;;;;;;;5033276;28;20410;-75
2022/07/29 13:01:44;;;;;;;3.40;2.50;;;;;;;;;;5033286;28;20412;-76
2022/07/29 13:04:10;;;;;;;7.23;2.60;;;;;;;;;;5032821;28;20476;-76
2022/07/29 13:06:43;;;;;;;7.20;3.47;;;;;;;;;;5033309;28;20422;-76
2022/07/29 13:09:13;;;;;;;5.10;3.00;;;;;;;;;;5033209;28;20437;-76
2022/07/29 13:11:44;;;;;;;6.13;3.30;;;;;;;;;;5033395;28;20809;-75
2022/07/29 13:14:11;;;;;;;6.60;4.07;;;;;;;;;;5033160;28;20769;-75
2022/07/29 13:16:38;;;;;;;8.17;3.30;;;;;;;;;;5033171;28;20475;-76
2022/07/29 13:19:05;;;;;;;9.53;4.73;;;;;;;;;;5032975;28;20445;-75
2022/07/29 13:21:31;;;;;;;8.30;4.57;;;;;;;;;;5032209;28;20401;-75
2022/07/29 13:23:57;;;;;;;15.83;4.77;;;;;;;;;;5031601;28;20432;-75
2022/07/29 13:26:23;;;;;;;10.50;5.30;;;;;;;;;;5033036;28;20410;-75
2022/07/29 13:28:49;;;;;;;9.97;4.17;;;;;;;;;;5033060;28;20455;-75
2022/07/29 13:31:15;;;;;;;9.87;4.83;;;;;;;;;;5033244;28;20898;-75
2022/07/29 13:33:41;;;;;;;9.50;5.03;;;;;;;;;;5032416;28;20523;-76
2022/07/29 13:36:07;;;;;;;10.30;4.73;;;;;;;;;;5032882;28;20788;-76
2022/07/29 13:38:33;;;;;;;6.40;4.73;;;;;;;;;;5033024;28;20772;-75
2022/07/29 13:40:59;;;;;;;7.07;4.47;;;;;;;;;;5032897;28;20846;-75
2022/07/29 13:43:25;;;;;;;8.27;4.50;;;;;;;;;;5032468;28;20452;-75
2022/07/29 13:45:51;;;;;;;14.67;4.10;;;;;;;;;;5032724;28;20414;-76
2022/07/29 13:48:17;;;;;;;8.97;4.63;;;;;;;;;;5032884;28;20414;-74
2022/07/29 13:50:44;;;;;;;7.93;4.50;;;;;;;;;;5031287;28;20413;-75
2022/07/29 13:53:10;;;;;;;8.03;4.20;;;;;;;;;;5034984;28;20492;-75
2022/07/29 13:55:36;;;;;;;6.57;4.13;;;;;;;;;;5052600;28;20452;-76
2022/07/29 13:58:02;;;;;;;7.50;3.40;;;;;;;;;;5051922;28;20814;-76
2022/07/29 14:00:28;;;;;;;7.13;4.10;;;;;;;;;;5052726;28;20404;-73
2022/07/29 14:02:54;;;;;;;9.03;4.03;;;;;;;;;;5046619;28;20524;-73
2022/07/29 14:05:20;;;;;;;8.10;4.23;;;;;;;;;;5040659;28;20437;-73
2022/07/29 14:07:46;;;;;;;6.63;4.40;;;;;;;;;;5050934;28;20421;-74
2022/07/29 14:10:12;;;;;;;9.40;4.20;;;;;;;;;;5032435;28;20421;-74
2022/07/29 14:12:39;;;;;;;4.77;3.43;;;;;;;;;;5031436;28;20571;-73
2022/07/29 14:15:05;;;;;;;8.93;3.80;;;;;;;;;;5032349;28;20461;-73
2022/07/29 14:17:31;;;;;;;9.93;3.13;;;;;;;;;;5032582;28;20768;-75
2022/07/29 14:19:57;;;;;;;4.73;3.23;;;;;;;;;;5031984;28;20488;-73
2022/07/29 14:22:24;;;;;;;5.20;2.90;;;;;;;;;;5047851;28;20499;-73
2022/07/29 14:24:50;;;;;;;8.90;3.40;;;;;;;;;;5051815;28;20432;-74
2022/07/29 14:27:16;;;;;;;5.33;2.90;;;;;;;;;;5052197;28;20504;-72
2022/07/29 14:29:43;;;;;;;5.60;2.70;;;;;;;;;;5049049;28;20416;-74
2022/07/29 14:32:09;;;;;;;5.70;2.40;;;;;;;;;;5049432;28;20456;-72
2022/07/29 14:34:36;;;;;;;4.40;2.50;;;;;;;;;;5052555;28;20588;-72
2022/07/29 14:37:04;;;;;;;5.43;2.20;;;;;;;;;;5054520;28;20421;-73
2022/07/29 14:39:30;;;;;;;5.03;2.00;;;;;;;;;;5043460;28;20512;-74
2022/07/29 14:41:59;;;;;;;3.70;2.60;;;;;;;;;;5038898;28;20513;-73
2022/07/29 14:44:30;;;;;;;8.07;2.40;;;;;;;;;;5035916;28;20475;-73
2022/07/29 14:46:56;;;;;;;5.10;2.43;;;;;;;;;;5035645;28;20440;-73
2022/07/29 14:49:22;;;;;;;3.87;2.00;;;;;;;;;;5035926;28;20409;-74
2022/07/29 14:51:48;;;;;;;3.77;1.90;;;;;;;;;;5032360;28;20487;-74